createdAt,value
2022-11-12T08:12:05.457Z,30.23
2022-11-12T08:15:01.703Z,37.45
2022-11-12T08:22:36.028Z,48.17
2022-11-12T08:25:52.565Z,47.33
2022-11-12T08:33:26.537Z,41.47
2022-11-12T08:36:15.596Z,41.90
2022-11-12T08:39:01.982Z,38.65
2022-11-12T08:42:39.660Z,35.17
2022-11-12T08:45:33.623Z,35.55
2022-11-12T08:48:19.860Z,34.47
2022-11-12T08:51:14.845Z,33.97
2022-11-12T08:54:26.032Z,32.88
2022-11-12T08:57:11.799Z,30.35
2022-11-12T08:59:57.525Z,32.35
2022-11-12T09:02:48.020Z,30.33
2022-11-12T09:05:37.451Z,26.67
2022-11-12T09:08:25.892Z,29.65
2022-11-12T09:11:12.373Z,30.38
2022-11-12T09:18:48.222Z,26.45
2022-11-12T09:21:34.208Z,27.60
2022-11-12T09:24:38.197Z,27.98
2022-11-12T09:27:26.896Z,26.23
2022-11-12T09:31:21.217Z,26.00
2022-11-12T09:34:07.345Z,30.13
2022-11-12T09:40:09.828Z,29.20
2022-11-12T09:43:05.003Z,26.15
2022-11-12T09:46:06.777Z,27.75
2022-11-12T09:49:18.439Z,28.05
2022-11-12T09:52:23.450Z,23.77
2022-11-12T09:55:22.416Z,23.98
2022-11-12T09:59:03.555Z,26.42
2022-11-12T10:02:52.551Z,25.20
2022-11-12T10:06:19.089Z,23.15
2022-11-12T10:09:25.706Z,22.13
2022-11-12T10:12:38.071Z,21.30
2022-11-12T10:16:00.469Z,18.85
2022-11-12T10:18:55.528Z,22.45
2022-11-12T10:22:50.599Z,20.73
2022-11-12T10:26:12.154Z,22.63
2022-11-12T10:29:52.225Z,21.77
2022-11-12T10:32:43.192Z,21.90
2022-11-12T10:35:29.248Z,21.80
2022-11-12T10:43:02.721Z,20.00
2022-11-12T10:46:23.326Z,17.85
2022-11-12T10:49:16.396Z,19.40
2022-11-12T10:52:02.504Z,20.35
2022-11-12T10:59:41.046Z,20.45
2022-11-12T11:02:27.955Z,23.83
2022-11-12T11:05:39.493Z,22.60
2022-11-12T11:08:44.521Z,21.65
2022-11-12T11:11:31.672Z,19.77
2022-11-12T11:14:31.931Z,20.83
2022-11-12T11:17:19.190Z,22.67
2022-11-12T11:20:29.296Z,22.45
2022-11-12T11:23:30.642Z,22.20
2022-11-12T11:27:08.925Z,21.15
2022-11-12T11:30:16.992Z,19.90
2022-11-12T11:33:24.579Z,21.02
2022-11-12T11:36:45.655Z,22.02
2022-11-12T11:40:01.587Z,20.40
2022-11-12T11:42:54.993Z,19.42
2022-11-12T11:46:36.108Z,18.98
2022-11-12T11:50:02.859Z,23.05
2022-11-12T11:53:22.114Z,20.33
2022-11-12T11:56:45.348Z,18.00
2022-11-12T12:04:45.789Z,17.63
2022-11-12T12:08:02.228Z,16.30
2022-11-12T12:11:27.354Z,13.07
2022-11-12T12:14:36.631Z,10.20
2022-11-12T12:17:34.302Z,11.95
2022-11-12T12:21:08.381Z,10.68
2022-11-12T12:24:06.251Z,9.98
2022-11-12T12:26:55.172Z,8.45
2022-11-12T12:29:55.795Z,10.98
2022-11-12T12:33:02.585Z,8.13
2022-11-12T12:36:05.415Z,10.23
2022-11-12T12:43:22.595Z,10.35
2022-11-12T12:46:15.859Z,12.27
2022-11-12T12:49:05.328Z,9.63
2022-11-12T12:51:55.792Z,8.73
2022-11-12T12:54:48.144Z,10.02
2022-11-12T12:57:40.180Z,10.02
2022-11-12T13:00:30.776Z,10.80
2022-11-12T13:03:44.924Z,8.75
2022-11-12T13:13:15.616Z,22.00
2022-11-12T13:16:41.382Z,13.60
2022-11-12T13:25:16.814Z,12.10
2022-11-12T13:28:03.332Z,11.48
2022-11-12T13:30:49.517Z,9.35
2022-11-12T13:33:39.062Z,11.88
2022-11-12T13:36:32.350Z,13.95
2022-11-12T13:39:22.709Z,9.45
2022-11-12T13:42:50.693Z,11.43
2022-11-12T13:46:00.825Z,8.17
2022-11-12T13:48:57.624Z,9.82
2022-11-12T13:51:53.357Z,10.20
2022-11-12T13:54:39.913Z,13.02
2022-11-12T13:57:33.121Z,11.60
2022-11-12T14:00:23.171Z,10.95
2022-11-12T14:03:19.441Z,16.98
2022-11-12T14:06:47.698Z,19.95
2022-11-12T14:10:17.397Z,20.17
2022-11-12T14:13:29.074Z,26.38
2022-11-12T14:16:59.238Z,31.27
2022-11-12T14:20:18.617Z,36.72
2022-11-12T14:23:24.839Z,21.92
2022-11-12T14:26:14.000Z,17.27
2022-11-12T14:29:00.808Z,19.30
2022-11-12T14:31:59.884Z,17.92
2022-11-12T14:35:39.023Z,21.52
2022-11-12T14:38:43.216Z,17.55
2022-11-12T14:41:37.279Z,18.77
2022-11-12T14:44:44.469Z,18.30
2022-11-12T14:47:30.096Z,15.70
2022-11-12T14:50:25.114Z,14.38
2022-11-12T14:53:30.379Z,15.05
2022-11-12T14:56:39.098Z,14.25
2022-11-12T14:59:25.382Z,10.95
2022-11-12T15:02:52.260Z,14.88
2022-11-12T15:06:40.885Z,13.18
2022-11-12T15:09:52.422Z,14.93
2022-11-12T15:18:43.612Z,17.50
2022-11-12T15:26:36.325Z,21.10
2022-11-12T15:29:52.797Z,21.27
2022-11-12T15:32:55.786Z,19.67
2022-11-12T15:35:45.243Z,18.88
2022-11-12T15:38:37.797Z,18.88
2022-11-12T15:41:28.531Z,19.40
2022-11-12T15:44:14.612Z,20.95
2022-11-12T15:47:01.649Z,16.38
2022-11-12T15:49:57.176Z,17.00
2022-11-12T15:52:43.106Z,17.38
2022-11-12T15:55:29.326Z,16.77
2022-11-12T15:58:30.078Z,19.00
2022-11-12T16:01:16.200Z,14.95
2022-11-12T16:04:05.406Z,16.58
2022-11-12T16:06:51.941Z,14.50
2022-11-12T16:14:31.794Z,14.10
2022-11-12T16:20:43.003Z,17.02
2022-11-12T16:23:31.862Z,14.27
2022-11-12T16:29:59.950Z,15.73
2022-11-12T16:32:48.742Z,15.98
2022-11-12T16:35:36.277Z,14.15
2022-11-12T16:38:23.219Z,16.52
2022-11-12T16:41:14.460Z,15.55
2022-11-12T16:44:00.182Z,15.30
2022-11-12T16:46:47.029Z,17.15
2022-11-12T16:49:38.412Z,17.27
2022-11-12T16:52:25.854Z,19.38
2022-11-12T16:55:12.638Z,18.02
2022-11-12T16:57:58.607Z,22.10
2022-11-12T17:00:50.118Z,20.42
2022-11-12T17:03:35.764Z,18.27
2022-11-12T17:06:24.323Z,24.65
2022-11-12T17:09:12.385Z,20.83
2022-11-12T17:11:58.057Z,21.83
2022-11-12T17:14:45.491Z,20.73
2022-11-12T17:17:31.577Z,25.35
2022-11-12T17:20:17.513Z,28.95
2022-11-12T17:23:03.391Z,30.42
2022-11-12T17:25:49.174Z,35.72
2022-11-12T17:29:08.095Z,38.42
2022-11-12T17:31:54.575Z,40.45
2022-11-12T17:34:40.585Z,40.00
2022-11-12T17:37:26.074Z,43.88
2022-11-12T17:40:12.200Z,41.20
2022-11-12T17:42:58.092Z,50.13
2022-11-12T17:45:52.397Z,43.58
2022-11-12T17:48:38.825Z,48.58
2022-11-12T17:51:28.072Z,44.20
2022-11-12T17:54:40.061Z,55.70
2022-11-12T17:57:26.036Z,58.38
2022-11-12T18:00:12.868Z,58.53
2022-11-12T18:02:59.291Z,58.13
2022-11-12T18:05:45.737Z,56.20
2022-11-12T18:08:32.088Z,67.43
2022-11-12T18:11:18.791Z,64.07
2022-11-12T18:14:30.381Z,107.53
2022-11-12T18:17:16.753Z,71.45
2022-11-12T18:20:04.243Z,71.35
2022-11-12T18:22:50.950Z,67.13
2022-11-12T18:25:40.805Z,69.18
2022-11-12T18:28:26.627Z,64.65
2022-11-12T18:31:13.822Z,69.10
2022-11-12T18:34:00.271Z,63.13
2022-11-12T18:36:47.645Z,65.75
2022-11-12T18:39:36.204Z,65.00
2022-11-12T18:42:22.099Z,60.95
2022-11-12T18:45:09.221Z,55.67
2022-11-12T18:48:01.886Z,58.47
2022-11-12T18:51:03.546Z,52.03
2022-11-12T18:54:05.409Z,52.17
2022-11-12T18:56:51.778Z,59.15
2022-11-12T18:59:43.579Z,56.25
2022-11-12T19:02:30.649Z,62.95
2022-11-12T19:06:56.820Z,54.33
2022-11-12T19:10:19.906Z,46.75
2022-11-12T19:13:10.340Z,59.97
2022-11-12T19:19:56.632Z,42.42
2022-11-12T19:23:16.288Z,44.85
2022-11-12T19:26:05.102Z,37.83
2022-11-12T19:28:51.438Z,39.95
2022-11-12T19:31:37.701Z,37.65
2022-11-12T19:34:23.722Z,34.13
2022-11-12T19:37:32.349Z,35.15
2022-11-12T19:40:16.134Z,34.25
2022-11-12T19:43:06.063Z,33.42
2022-11-12T19:45:52.283Z,31.58
2022-11-12T19:48:39.388Z,32.08
2022-11-12T19:51:26.005Z,31.00
2022-11-12T19:59:29.349Z,52.88
2022-11-12T20:02:16.508Z,49.10
2022-11-12T20:05:28.674Z,44.28
2022-11-12T20:08:15.131Z,46.47
2022-11-12T20:11:02.276Z,34.75
2022-11-12T20:13:48.368Z,35.97
2022-11-12T20:16:34.241Z,32.42
2022-11-12T20:19:20.309Z,31.25
2022-11-12T20:22:29.196Z,29.08
2022-11-12T20:25:17.615Z,30.23
2022-11-12T20:28:03.836Z,27.65
2022-11-12T20:31:47.658Z,29.00
2022-11-12T20:34:34.004Z,27.75
2022-11-12T20:37:20.180Z,32.35
2022-11-12T20:40:07.444Z,32.33
2022-11-12T20:43:00.569Z,33.10
2022-11-12T20:45:52.070Z,31.30
2022-11-12T20:49:01.136Z,32.85
2022-11-12T21:05:47.322Z,33.00
2022-11-12T21:10:26.569Z,31.63
2022-11-12T21:13:59.437Z,31.77
2022-11-12T21:28:34.586Z,29.58
2022-11-12T21:36:56.452Z,32.88
2022-11-12T21:40:42.350Z,34.42
2022-11-12T21:43:48.110Z,61.28
2022-11-12T21:49:59.260Z,62.53
2022-11-12T21:51:54.415Z,41.23
2022-11-12T22:44:07.070Z,30.52
2022-11-12T23:17:10.159Z,29.17
2022-11-12T23:19:58.325Z,27.33
2022-11-12T23:28:07.947Z,30.52
2022-11-12T23:31:06.616Z,28.08
2022-11-12T23:33:59.144Z,26.15
2022-11-12T23:53:04.367Z,29.83
